Detall de PIREP

Printer-friendly versionPDF version

[2011/04/19 07:15:00]
Flight IATA:CT2108
Pilot Number:041
Company ICAO:CAT
Aircraft Type:B463/A
PAX:61
Departing Airport: LEVC
Destination Airport: LEMG
Alternate Airport:LEMD
Online: VATSIM
Route:ASTRO B28 MGA
Flight Level:F230
No Slew and time accel
No pause
Crash detect
Detect pilot in Cockpit between each 30 and 45 minutes
07:15 Zero fuel Weight: 72708 Lbs, Fuel Weight: 20630 Lbs
07:15 VATSIM:LEVC 190700Z 34003KT 290V010 CAVOK 13/12 Q1014 NOSIG
07:15 VATSIM:LEMG 190700Z 14003KT 100V180 9999 FEW010 BKN020 16/12 Q1013 NOSIG
07:16 VOICE CATALONIAN
07:18 Parking Brakes off
07:25 Take-off
07:25 Take off Weight: 92873 Lbs
07:25 Wind: 339º @ 003 Knots Heading: 296º
07:25 POS N39º 29´ 25´´ W000º 29´ 04´´
07:25 Flaps:1 at 192 Knots
07:25 Gear Up: 208 Knots
07:25 Flaps:0 at 221 Knots
07:34 TOC
07:34 Fuel Weight: 18767 Lb
07:40 Wind:136º@009 Knots Heading: 230º Ground Speed: 351 Knots Altitude 22988 ft
07:55 Wind:178º@005 Knots Heading: 225º Ground Speed: 364 Knots Altitude 22988 ft
08:03 TOD
08:03 Fuel Weight: 16367 Lb
08:10 Wind:143º@007 Knots Heading: 307º Ground Speed: 303 Knots Altitude 8205 ft
08:13 Flaps:1 at 187 Knots
08:19 Flaps:2 at 186 Knots
08:19 Gear Down: 179 Knots
08:20 Flaps:3 at 173 Knots
08:24 TouchDown:Rate -121 ft/min Speed: 124 Knots
08:24 VATSIM:LEMG 190800Z 16006KT 9999 FEW015 SCT025 17/11 Q1014 NOSIG
08:24 Land
08:24 Wind:149º@007 Knots
08:24 Heading: 127º
08:24 Flight Duration: 00:59
08:24 Landing Weight: 88060 Lbs
08:24 POS N36º 40´ 36´´ W004º 30´ 06´´
08:27 Parking brakes on
08:27 Block to Block Duration: 01:09
08:27 Final Fuel: 15251 Lbls
08:27 Spent Fuel: 5379 Lbls
08:27 Flight Length: 300 NM
08:27 TOD Land Length: 83 NM

Exportar CSV

Powered by Drupal - Modified by Danger4k